sensor_id;sensor_type;location;lat;lon;timestamp;P1;durP1;ratioP1;P2;durP2;ratioP2
4700;SDS011;8724;51.272;6.554;2023-05-07T00:00:28;2.57;;;2.37;;
4700;SDS011;8724;51.272;6.554;2023-05-07T00:02:56;2.63;;;2.43;;
4700;SDS011;8724;51.272;6.554;2023-05-07T00:05:25;3.20;;;2.90;;
4700;SDS011;8724;51.272;6.554;2023-05-07T00:07:53;5.60;;;3.03;;
4700;SDS011;8724;51.272;6.554;2023-05-07T00:10:25;4.23;;;3.00;;
4700;SDS011;8724;51.272;6.554;2023-05-07T00:12:55;3.90;;;2.57;;
4700;SDS011;8724;51.272;6.554;2023-05-07T00:15:23;3.13;;;2.73;;
4700;SDS011;8724;51.272;6.554;2023-05-07T00:17:51;7.80;;;2.90;;
4700;SDS011;8724;51.272;6.554;2023-05-07T00:20:21;4.00;;;2.53;;
4700;SDS011;8724;51.272;6.554;2023-05-07T00:22:49;3.13;;;2.83;;
4700;SDS011;8724;51.272;6.554;2023-05-07T00:25:18;2.90;;;2.70;;
4700;SDS011;8724;51.272;6.554;2023-05-07T00:27:46;3.43;;;3.13;;
4700;SDS011;8724;51.272;6.554;2023-05-07T00:30:16;2.53;;;2.33;;
4700;SDS011;8724;51.272;6.554;2023-05-07T00:32:45;6.00;;;3.30;;
4700;SDS011;8724;51.272;6.554;2023-05-07T00:35:15;3.43;;;3.20;;
4700;SDS011;8724;51.272;6.554;2023-05-07T00:37:44;3.00;;;2.80;;
4700;SDS011;8724;51.272;6.554;2023-05-07T00:40:12;3.37;;;3.00;;
4700;SDS011;8724;51.272;6.554;2023-05-07T00:42:41;3.03;;;2.83;;
4700;SDS011;8724;51.272;6.554;2023-05-07T00:45:14;3.33;;;3.03;;
4700;SDS011;8724;51.272;6.554;2023-05-07T00:47:44;3.07;;;2.77;;
4700;SDS011;8724;51.272;6.554;2023-05-07T00:50:13;4.93;;;3.60;;
4700;SDS011;8724;51.272;6.554;2023-05-07T00:52:42;2.90;;;2.70;;
4700;SDS011;8724;51.272;6.554;2023-05-07T00:55:11;3.00;;;2.70;;
4700;SDS011;8724;51.272;6.554;2023-05-07T00:57:41;4.00;;;3.30;;
4700;SDS011;8724;51.272;6.554;2023-05-07T01:00:10;5.57;;;2.70;;
4700;SDS011;8724;51.272;6.554;2023-05-07T01:02:40;4.93;;;3.00;;
4700;SDS011;8724;51.272;6.554;2023-05-07T01:05:11;3.43;;;3.13;;
4700;SDS011;8724;51.272;6.554;2023-05-07T01:07:42;3.70;;;3.30;;
4700;SDS011;8724;51.272;6.554;2023-05-07T01:10:11;2.90;;;2.70;;
4700;SDS011;8724;51.272;6.554;2023-05-07T01:12:41;4.27;;;3.00;;
4700;SDS011;8724;51.272;6.554;2023-05-07T01:15:11;3.80;;;3.40;;
4700;SDS011;8724;51.272;6.554;2023-05-07T01:17:40;3.30;;;3.00;;
4700;SDS011;8724;51.272;6.554;2023-05-07T01:20:18;3.53;;;3.23;;
4700;SDS011;8724;51.272;6.554;2023-05-07T01:22:51;3.90;;;3.60;;
4700;SDS011;8724;51.272;6.554;2023-05-07T01:25:21;5.00;;;3.77;;
4700;SDS011;8724;51.272;6.554;2023-05-07T01:27:52;4.00;;;3.60;;
4700;SDS011;8724;51.272;6.554;2023-05-07T01:30:26;5.00;;;4.13;;
4700;SDS011;8724;51.272;6.554;2023-05-07T01:32:58;4.83;;;4.20;;
4700;SDS011;8724;51.272;6.554;2023-05-07T01:35:32;3.73;;;3.43;;
4700;SDS011;8724;51.272;6.554;2023-05-07T01:38:06;4.00;;;3.70;;
4700;SDS011;8724;51.272;6.554;2023-05-07T01:40:36;4.30;;;3.60;;
4700;SDS011;8724;51.272;6.554;2023-05-07T01:43:04;3.60;;;3.30;;
4700;SDS011;8724;51.272;6.554;2023-05-07T01:45:35;4.20;;;3.80;;
4700;SDS011;8724;51.272;6.554;2023-05-07T01:48:04;4.80;;;4.40;;
4700;SDS011;8724;51.272;6.554;2023-05-07T01:50:33;3.93;;;3.60;;
4700;SDS011;8724;51.272;6.554;2023-05-07T01:53:03;3.50;;;3.20;;
4700;SDS011;8724;51.272;6.554;2023-05-07T01:55:33;4.17;;;3.87;;
4700;SDS011;8724;51.272;6.554;2023-05-07T01:58:03;4.33;;;3.90;;
4700;SDS011;8724;51.272;6.554;2023-05-07T02:00:32;5.30;;;4.00;;
4700;SDS011;8724;51.272;6.554;2023-05-07T02:03:00;4.00;;;3.60;;
4700;SDS011;8724;51.272;6.554;2023-05-07T02:05:46;3.80;;;3.50;;
4700;SDS011;8724;51.272;6.554;2023-05-07T02:08:34;3.27;;;3.00;;
4700;SDS011;8724;51.272;6.554;2023-05-07T02:11:04;3.47;;;3.20;;
4700;SDS011;8724;51.272;6.554;2023-05-07T02:13:34;3.77;;;3.40;;
4700;SDS011;8724;51.272;6.554;2023-05-07T02:16:03;4.83;;;3.20;;
4700;SDS011;8724;51.272;6.554;2023-05-07T02:18:32;4.13;;;3.43;;
4700;SDS011;8724;51.272;6.554;2023-05-07T02:21:02;7.03;;;3.40;;
4700;SDS011;8724;51.272;6.554;2023-05-07T02:23:31;3.40;;;3.10;;
4700;SDS011;8724;51.272;6.554;2023-05-07T02:26:01;3.60;;;3.23;;
4700;SDS011;8724;51.272;6.554;2023-05-07T02:28:30;4.70;;;2.83;;
4700;SDS011;8724;51.272;6.554;2023-05-07T02:31:02;3.93;;;3.13;;
4700;SDS011;8724;51.272;6.554;2023-05-07T02:33:31;3.53;;;3.23;;
4700;SDS011;8724;51.272;6.554;2023-05-07T02:36:06;4.17;;;3.20;;
4700;SDS011;8724;51.272;6.554;2023-05-07T02:38:39;2.87;;;2.67;;
4700;SDS011;8724;51.272;6.554;2023-05-07T02:41:10;3.57;;;3.00;;
4700;SDS011;8724;51.272;6.554;2023-05-07T02:43:39;2.77;;;2.57;;
4700;SDS011;8724;51.272;6.554;2023-05-07T02:46:09;3.80;;;2.87;;
4700;SDS011;8724;51.272;6.554;2023-05-07T02:48:41;3.30;;;3.10;;
4700;SDS011;8724;51.272;6.554;2023-05-07T02:51:10;4.10;;;3.67;;
4700;SDS011;8724;51.272;6.554;2023-05-07T02:53:41;3.73;;;2.70;;
4700;SDS011;8724;51.272;6.554;2023-05-07T02:56:09;3.57;;;3.27;;
4700;SDS011;8724;51.272;6.554;2023-05-07T02:58:37;3.00;;;2.80;;
4700;SDS011;8724;51.272;6.554;2023-05-07T03:01:09;3.00;;;2.80;;
4700;SDS011;8724;51.272;6.554;2023-05-07T03:03:45;4.50;;;2.67;;
4700;SDS011;8724;51.272;6.554;2023-05-07T03:06:14;3.13;;;2.83;;
4700;SDS011;8724;51.272;6.554;2023-05-07T03:08:43;6.23;;;3.70;;
4700;SDS011;8724;51.272;6.554;2023-05-07T03:11:11;9.10;;;2.87;;
4700;SDS011;8724;51.272;6.554;2023-05-07T03:13:41;2.60;;;2.30;;
4700;SDS011;8724;51.272;6.554;2023-05-07T03:16:09;2.70;;;2.50;;
4700;SDS011;8724;51.272;6.554;2023-05-07T03:18:38;2.77;;;2.53;;
4700;SDS011;8724;51.272;6.554;2023-05-07T03:21:06;4.10;;;2.23;;
4700;SDS011;8724;51.272;6.554;2023-05-07T03:23:35;3.00;;;2.80;;
4700;SDS011;8724;51.272;6.554;2023-05-07T03:26:03;2.93;;;2.67;;
4700;SDS011;8724;51.272;6.554;2023-05-07T03:28:32;3.23;;;2.40;;
4700;SDS011;8724;51.272;6.554;2023-05-07T03:31:05;3.43;;;2.80;;
4700;SDS011;8724;51.272;6.554;2023-05-07T03:33:34;2.83;;;2.63;;
4700;SDS011;8724;51.272;6.554;2023-05-07T03:36:02;2.80;;;2.60;;
4700;SDS011;8724;51.272;6.554;2023-05-07T03:38:32;3.07;;;2.80;;
4700;SDS011;8724;51.272;6.554;2023-05-07T03:41:00;3.07;;;2.77;;
4700;SDS011;8724;51.272;6.554;2023-05-07T03:43:29;2.50;;;2.30;;
4700;SDS011;8724;51.272;6.554;2023-05-07T03:46:05;2.90;;;2.70;;
4700;SDS011;8724;51.272;6.554;2023-05-07T03:48:33;2.30;;;2.10;;
4700;SDS011;8724;51.272;6.554;2023-05-07T03:51:02;2.83;;;2.53;;
4700;SDS011;8724;51.272;6.554;2023-05-07T03:53:32;2.70;;;2.30;;
4700;SDS011;8724;51.272;6.554;2023-05-07T03:56:01;2.37;;;2.17;;
4700;SDS011;8724;51.272;6.554;2023-05-07T03:58:34;2.70;;;2.50;;
4700;SDS011;8724;51.272;6.554;2023-05-07T04:01:10;3.70;;;2.63;;
4700;SDS011;8724;51.272;6.554;2023-05-07T04:03:39;2.73;;;2.53;;
4700;SDS011;8724;51.272;6.554;2023-05-07T04:06:07;2.50;;;2.30;;
4700;SDS011;8724;51.272;6.554;2023-05-07T04:08:36;5.10;;;3.00;;
4700;SDS011;8724;51.272;6.554;2023-05-07T04:11:06;2.87;;;2.03;;
4700;SDS011;8724;51.272;6.554;2023-05-07T04:13:36;2.90;;;2.70;;
4700;SDS011;8724;51.272;6.554;2023-05-07T04:16:08;2.30;;;2.20;;
4700;SDS011;8724;51.272;6.554;2023-05-07T04:18:38;2.03;;;1.90;;
4700;SDS011;8724;51.272;6.554;2023-05-07T04:21:13;3.13;;;2.30;;
4700;SDS011;8724;51.272;6.554;2023-05-07T04:23:43;2.90;;;2.70;;
4700;SDS011;8724;51.272;6.554;2023-05-07T04:26:13;2.63;;;2.43;;
4700;SDS011;8724;51.272;6.554;2023-05-07T04:28:43;2.93;;;2.73;;
4700;SDS011;8724;51.272;6.554;2023-05-07T04:31:15;3.10;;;2.50;;
4700;SDS011;8724;51.272;6.554;2023-05-07T04:33:47;4.37;;;2.90;;
4700;SDS011;8724;51.272;6.554;2023-05-07T04:36:17;3.63;;;3.27;;
4700;SDS011;8724;51.272;6.554;2023-05-07T04:38:55;3.00;;;2.30;;
4700;SDS011;8724;51.272;6.554;2023-05-07T04:41:24;4.10;;;2.83;;
4700;SDS011;8724;51.272;6.554;2023-05-07T04:43:53;4.30;;;2.83;;
4700;SDS011;8724;51.272;6.554;2023-05-07T04:46:24;3.03;;;2.33;;
4700;SDS011;8724;51.272;6.554;2023-05-07T04:48:56;3.20;;;2.87;;
4700;SDS011;8724;51.272;6.554;2023-05-07T04:51:24;2.87;;;2.57;;
4700;SDS011;8724;51.272;6.554;2023-05-07T04:53:54;2.63;;;2.40;;
4700;SDS011;8724;51.272;6.554;2023-05-07T04:56:23;2.97;;;2.77;;
4700;SDS011;8724;51.272;6.554;2023-05-07T04:58:52;3.70;;;2.93;;
4700;SDS011;8724;51.272;6.554;2023-05-07T05:01:21;2.60;;;2.40;;
4700;SDS011;8724;51.272;6.554;2023-05-07T05:03:51;2.40;;;2.13;;
4700;SDS011;8724;51.272;6.554;2023-05-07T05:06:19;6.90;;;2.93;;
4700;SDS011;8724;51.272;6.554;2023-05-07T05:08:49;2.50;;;2.27;;
4700;SDS011;8724;51.272;6.554;2023-05-07T05:11:18;3.03;;;2.13;;
4700;SDS011;8724;51.272;6.554;2023-05-07T05:13:47;2.70;;;2.37;;
4700;SDS011;8724;51.272;6.554;2023-05-07T05:16:19;3.17;;;2.87;;
4700;SDS011;8724;51.272;6.554;2023-05-07T05:18:48;3.80;;;3.30;;
4700;SDS011;8724;51.272;6.554;2023-05-07T05:21:19;2.60;;;2.27;;
4700;SDS011;8724;51.272;6.554;2023-05-07T05:23:52;2.57;;;2.37;;
4700;SDS011;8724;51.272;6.554;2023-05-07T05:26:23;2.93;;;2.30;;
4700;SDS011;8724;51.272;6.554;2023-05-07T05:28:52;2.50;;;2.23;;
4700;SDS011;8724;51.272;6.554;2023-05-07T05:31:23;4.20;;;2.80;;
4700;SDS011;8724;51.272;6.554;2023-05-07T05:33:52;3.00;;;2.80;;
4700;SDS011;8724;51.272;6.554;2023-05-07T05:36:21;2.60;;;2.33;;
4700;SDS011;8724;51.272;6.554;2023-05-07T05:38:53;2.70;;;2.50;;
4700;SDS011;8724;51.272;6.554;2023-05-07T05:41:22;2.63;;;2.30;;
4700;SDS011;8724;51.272;6.554;2023-05-07T05:43:52;5.63;;;3.17;;
4700;SDS011;8724;51.272;6.554;2023-05-07T05:46:21;3.03;;;2.70;;
4700;SDS011;8724;51.272;6.554;2023-05-07T05:48:50;2.70;;;2.50;;
4700;SDS011;8724;51.272;6.554;2023-05-07T05:51:20;3.07;;;2.77;;
4700;SDS011;8724;51.272;6.554;2023-05-07T05:53:50;3.10;;;2.90;;
4700;SDS011;8724;51.272;6.554;2023-05-07T05:56:19;2.70;;;2.50;;
4700;SDS011;8724;51.272;6.554;2023-05-07T05:58:47;2.60;;;2.40;;
4700;SDS011;8724;51.272;6.554;2023-05-07T06:01:16;2.93;;;2.73;;
4700;SDS011;8724;51.272;6.554;2023-05-07T06:03:47;2.90;;;2.60;;
4700;SDS011;8724;51.272;6.554;2023-05-07T06:06:16;19.87;;;2.97;;
4700;SDS011;8724;51.272;6.554;2023-05-07T06:08:46;2.93;;;2.30;;
4700;SDS011;8724;51.272;6.554;2023-05-07T06:11:20;2.80;;;2.13;;
4700;SDS011;8724;51.272;6.554;2023-05-07T06:13:49;3.60;;;2.17;;
4700;SDS011;8724;51.272;6.554;2023-05-07T06:16:17;3.03;;;2.10;;
4700;SDS011;8724;51.272;6.554;2023-05-07T06:18:47;2.37;;;2.13;;
4700;SDS011;8724;51.272;6.554;2023-05-07T06:21:16;2.77;;;2.10;;
4700;SDS011;8724;51.272;6.554;2023-05-07T06:23:44;3.60;;;2.43;;
4700;SDS011;8724;51.272;6.554;2023-05-07T06:26:14;2.90;;;2.70;;
4700;SDS011;8724;51.272;6.554;2023-05-07T06:28:45;6.13;;;2.67;;
4700;SDS011;8724;51.272;6.554;2023-05-07T06:31:15;3.00;;;2.80;;
4700;SDS011;8724;51.272;6.554;2023-05-07T06:34:01;3.27;;;3.00;;
4700;SDS011;8724;51.272;6.554;2023-05-07T06:36:34;3.57;;;3.27;;
4700;SDS011;8724;51.272;6.554;2023-05-07T06:39:14;2.83;;;2.50;;
4700;SDS011;8724;51.272;6.554;2023-05-07T06:41:43;2.90;;;2.60;;
4700;SDS011;8724;51.272;6.554;2023-05-07T06:44:22;2.40;;;2.20;;
4700;SDS011;8724;51.272;6.554;2023-05-07T06:47:09;2.97;;;2.67;;
4700;SDS011;8724;51.272;6.554;2023-05-07T06:49:41;3.57;;;2.27;;
4700;SDS011;8724;51.272;6.554;2023-05-07T06:52:13;3.47;;;2.27;;
4700;SDS011;8724;51.272;6.554;2023-05-07T06:54:42;2.20;;;2.10;;
4700;SDS011;8724;51.272;6.554;2023-05-07T06:57:15;3.73;;;2.30;;
4700;SDS011;8724;51.272;6.554;2023-05-07T06:59:44;2.13;;;1.87;;
4700;SDS011;8724;51.272;6.554;2023-05-07T07:02:13;2.30;;;1.77;;
4700;SDS011;8724;51.272;6.554;2023-05-07T07:04:44;1.90;;;1.80;;
4700;SDS011;8724;51.272;6.554;2023-05-07T07:07:13;2.57;;;2.30;;
4700;SDS011;8724;51.272;6.554;2023-05-07T07:09:45;2.60;;;2.07;;
4700;SDS011;8724;51.272;6.554;2023-05-07T07:12:18;2.03;;;1.80;;
4700;SDS011;8724;51.272;6.554;2023-05-07T07:14:46;2.93;;;2.03;;
4700;SDS011;8724;51.272;6.554;2023-05-07T07:17:15;2.17;;;1.93;;
4700;SDS011;8724;51.272;6.554;2023-05-07T07:19:44;2.87;;;2.10;;
4700;SDS011;8724;51.272;6.554;2023-05-07T07:22:12;2.60;;;2.20;;
4700;SDS011;8724;51.272;6.554;2023-05-07T07:24:41;2.40;;;2.20;;
4700;SDS011;8724;51.272;6.554;2023-05-07T07:27:12;1.90;;;1.80;;
4700;SDS011;8724;51.272;6.554;2023-05-07T07:29:42;2.80;;;2.17;;
4700;SDS011;8724;51.272;6.554;2023-05-07T07:32:11;2.00;;;1.90;;
4700;SDS011;8724;51.272;6.554;2023-05-07T07:34:40;3.10;;;2.10;;
4700;SDS011;8724;51.272;6.554;2023-05-07T07:37:08;2.33;;;2.13;;
4700;SDS011;8724;51.272;6.554;2023-05-07T07:39:37;2.30;;;2.03;;
4700;SDS011;8724;51.272;6.554;2023-05-07T07:42:07;2.60;;;1.83;;
4700;SDS011;8724;51.272;6.554;2023-05-07T07:44:35;2.93;;;2.00;;
4700;SDS011;8724;51.272;6.554;2023-05-07T07:47:10;1.90;;;1.80;;
4700;SDS011;8724;51.272;6.554;2023-05-07T07:49:40;2.40;;;2.20;;
4700;SDS011;8724;51.272;6.554;2023-05-07T07:52:09;2.53;;;2.33;;
4700;SDS011;8724;51.272;6.554;2023-05-07T07:54:39;2.70;;;2.43;;
4700;SDS011;8724;51.272;6.554;2023-05-07T07:57:07;2.83;;;2.33;;
4700;SDS011;8724;51.272;6.554;2023-05-07T07:59:36;2.20;;;2.00;;
4700;SDS011;8724;51.272;6.554;2023-05-07T08:02:07;2.20;;;2.00;;
4700;SDS011;8724;51.272;6.554;2023-05-07T08:04:37;2.37;;;2.20;;
4700;SDS011;8724;51.272;6.554;2023-05-07T08:07:07;3.20;;;1.90;;
4700;SDS011;8724;51.272;6.554;2023-05-07T08:09:39;2.63;;;2.43;;
4700;SDS011;8724;51.272;6.554;2023-05-07T08:12:09;3.93;;;2.40;;
4700;SDS011;8724;51.272;6.554;2023-05-07T08:14:38;3.00;;;2.77;;
4700;SDS011;8724;51.272;6.554;2023-05-07T08:17:07;2.00;;;1.90;;
4700;SDS011;8724;51.272;6.554;2023-05-07T08:19:38;3.00;;;2.70;;
4700;SDS011;8724;51.272;6.554;2023-05-07T08:22:10;3.00;;;2.73;;
4700;SDS011;8724;51.272;6.554;2023-05-07T08:24:39;2.40;;;2.20;;
4700;SDS011;8724;51.272;6.554;2023-05-07T08:27:08;2.30;;;1.80;;
4700;SDS011;8724;51.272;6.554;2023-05-07T08:29:38;2.10;;;2.00;;
4700;SDS011;8724;51.272;6.554;2023-05-07T08:32:07;2.33;;;1.90;;
4700;SDS011;8724;51.272;6.554;2023-05-07T08:34:36;1.83;;;1.70;;
4700;SDS011;8724;51.272;6.554;2023-05-07T08:37:07;2.87;;;2.00;;
4700;SDS011;8724;51.272;6.554;2023-05-07T08:39:36;2.27;;;2.07;;
4700;SDS011;8724;51.272;6.554;2023-05-07T08:42:11;1.70;;;1.60;;
4700;SDS011;8724;51.272;6.554;2023-05-07T08:44:44;1.80;;;1.70;;
4700;SDS011;8724;51.272;6.554;2023-05-07T08:47:15;2.23;;;2.00;;
4700;SDS011;8724;51.272;6.554;2023-05-07T08:49:49;1.73;;;1.63;;
4700;SDS011;8724;51.272;6.554;2023-05-07T08:52:19;1.67;;;1.57;;
4700;SDS011;8724;51.272;6.554;2023-05-07T08:54:48;1.30;;;1.20;;
4700;SDS011;8724;51.272;6.554;2023-05-07T08:57:17;1.77;;;1.67;;
4700;SDS011;8724;51.272;6.554;2023-05-07T08:59:46;1.60;;;1.50;;
4700;SDS011;8724;51.272;6.554;2023-05-07T09:02:15;1.53;;;1.30;;
4700;SDS011;8724;51.272;6.554;2023-05-07T09:04:45;1.60;;;1.50;;
4700;SDS011;8724;51.272;6.554;2023-05-07T09:07:13;1.73;;;1.30;;
4700;SDS011;8724;51.272;6.554;2023-05-07T09:09:45;1.80;;;1.70;;
4700;SDS011;8724;51.272;6.554;2023-05-07T09:12:15;1.50;;;1.40;;
4700;SDS011;8724;51.272;6.554;2023-05-07T09:14:44;1.40;;;1.30;;
4700;SDS011;8724;51.272;6.554;2023-05-07T09:17:13;2.03;;;1.90;;
4700;SDS011;8724;51.272;6.554;2023-05-07T09:19:44;1.60;;;1.50;;
4700;SDS011;8724;51.272;6.554;2023-05-07T09:22:14;1.47;;;1.37;;
4700;SDS011;8724;51.272;6.554;2023-05-07T09:24:55;1.33;;;1.23;;
4700;SDS011;8724;51.272;6.554;2023-05-07T09:27:26;1.73;;;1.50;;
4700;SDS011;8724;51.272;6.554;2023-05-07T09:29:56;1.20;;;1.10;;
4700;SDS011;8724;51.272;6.554;2023-05-07T09:32:24;1.97;;;1.73;;
4700;SDS011;8724;51.272;6.554;2023-05-07T09:34:57;1.20;;;1.20;;
4700;SDS011;8724;51.272;6.554;2023-05-07T09:37:28;1.30;;;1.20;;
4700;SDS011;8724;51.272;6.554;2023-05-07T09:40:00;1.40;;;1.30;;
4700;SDS011;8724;51.272;6.554;2023-05-07T09:42:30;1.70;;;1.60;;
4700;SDS011;8724;51.272;6.554;2023-05-07T09:45:02;1.83;;;1.73;;
4700;SDS011;8724;51.272;6.554;2023-05-07T09:47:36;1.43;;;1.33;;
4700;SDS011;8724;51.272;6.554;2023-05-07T09:50:08;1.93;;;1.73;;
4700;SDS011;8724;51.272;6.554;2023-05-07T09:52:40;1.70;;;1.30;;
4700;SDS011;8724;51.272;6.554;2023-05-07T09:55:12;1.20;;;1.20;;
4700;SDS011;8724;51.272;6.554;2023-05-07T09:57:41;1.40;;;1.30;;
4700;SDS011;8724;51.272;6.554;2023-05-07T10:00:12;1.40;;;1.30;;
4700;SDS011;8724;51.272;6.554;2023-05-07T10:02:48;1.20;;;1.20;;
4700;SDS011;8724;51.272;6.554;2023-05-07T10:05:25;2.27;;;1.40;;
4700;SDS011;8724;51.272;6.554;2023-05-07T10:07:57;2.10;;;1.57;;
4700;SDS011;8724;51.272;6.554;2023-05-07T10:10:32;1.33;;;1.23;;
4700;SDS011;8724;51.272;6.554;2023-05-07T10:13:03;1.50;;;1.40;;
4700;SDS011;8724;51.272;6.554;2023-05-07T10:15:40;1.30;;;1.20;;
4700;SDS011;8724;51.272;6.554;2023-05-07T10:18:10;1.70;;;1.60;;
4700;SDS011;8724;51.272;6.554;2023-05-07T10:20:45;1.70;;;1.40;;
4700;SDS011;8724;51.272;6.554;2023-05-07T10:23:17;1.63;;;1.53;;
4700;SDS011;8724;51.272;6.554;2023-05-07T10:25:56;1.50;;;1.40;;
4700;SDS011;8724;51.272;6.554;2023-05-07T10:28:29;2.17;;;1.40;;
4700;SDS011;8724;51.272;6.554;2023-05-07T10:31:05;1.90;;;1.80;;
4700;SDS011;8724;51.272;6.554;2023-05-07T10:33:53;1.70;;;1.60;;
4700;SDS011;8724;51.272;6.554;2023-05-07T10:36:24;1.97;;;1.77;;
4700;SDS011;8724;51.272;6.554;2023-05-07T10:38:54;1.40;;;1.10;;
4700;SDS011;8724;51.272;6.554;2023-05-07T10:41:25;1.83;;;1.57;;
4700;SDS011;8724;51.272;6.554;2023-05-07T10:43:53;1.77;;;1.10;;
4700;SDS011;8724;51.272;6.554;2023-05-07T10:46:27;1.83;;;1.53;;
4700;SDS011;8724;51.272;6.554;2023-05-07T10:49:11;3.73;;;1.83;;
4700;SDS011;8724;51.272;6.554;2023-05-07T10:52:00;1.40;;;1.30;;
4700;SDS011;8724;51.272;6.554;2023-05-07T10:54:41;1.30;;;1.30;;
4700;SDS011;8724;51.272;6.554;2023-05-07T11:03:23;1.50;;;1.40;;
4700;SDS011;8724;51.272;6.554;2023-05-07T11:06:11;1.50;;;1.37;;
4700;SDS011;8724;51.272;6.554;2023-05-07T11:08:54;1.70;;;1.53;;
4700;SDS011;8724;51.272;6.554;2023-05-07T11:11:46;1.50;;;1.40;;
4700;SDS011;8724;51.272;6.554;2023-05-07T11:14:43;1.20;;;1.10;;
4700;SDS011;8724;51.272;6.554;2023-05-07T11:17:35;1.10;;;1.10;;
4700;SDS011;8724;51.272;6.554;2023-05-07T11:20:22;1.40;;;1.30;;
4700;SDS011;8724;51.272;6.554;2023-05-07T11:23:56;1.53;;;1.30;;
4700;SDS011;8724;51.272;6.554;2023-05-07T11:26:43;2.40;;;1.67;;
4700;SDS011;8724;51.272;6.554;2023-05-07T11:29:14;1.20;;;1.10;;
4700;SDS011;8724;51.272;6.554;2023-05-07T11:31:51;1.10;;;1.10;;
4700;SDS011;8724;51.272;6.554;2023-05-07T11:34:25;1.33;;;1.20;;
4700;SDS011;8724;51.272;6.554;2023-05-07T11:36:56;1.30;;;1.30;;
4700;SDS011;8724;51.272;6.554;2023-05-07T11:40:01;1.27;;;1.17;;
4700;SDS011;8724;51.272;6.554;2023-05-07T11:42:32;1.23;;;1.00;;
4700;SDS011;8724;51.272;6.554;2023-05-07T11:45:02;2.30;;;1.20;;
4700;SDS011;8724;51.272;6.554;2023-05-07T11:47:33;1.80;;;1.70;;
4700;SDS011;8724;51.272;6.554;2023-05-07T11:50:03;1.80;;;1.17;;
4700;SDS011;8724;51.272;6.554;2023-05-07T11:52:34;2.10;;;1.27;;
4700;SDS011;8724;51.272;6.554;2023-05-07T11:55:03;1.30;;;1.20;;
4700;SDS011;8724;51.272;6.554;2023-05-07T11:57:32;2.00;;;1.30;;
4700;SDS011;8724;51.272;6.554;2023-05-07T12:00:01;0.97;;;0.97;;
4700;SDS011;8724;51.272;6.554;2023-05-07T12:02:39;1.33;;;1.23;;
4700;SDS011;8724;51.272;6.554;2023-05-07T12:05:08;1.50;;;1.40;;
4700;SDS011;8724;51.272;6.554;2023-05-07T12:07:37;1.30;;;1.20;;
4700;SDS011;8724;51.272;6.554;2023-05-07T12:10:06;1.73;;;1.53;;
4700;SDS011;8724;51.272;6.554;2023-05-07T12:12:38;1.30;;;1.20;;
4700;SDS011;8724;51.272;6.554;2023-05-07T12:15:08;1.53;;;1.43;;
4700;SDS011;8724;51.272;6.554;2023-05-07T12:17:39;1.47;;;1.37;;
4700;SDS011;8724;51.272;6.554;2023-05-07T12:20:08;0.90;;;0.90;;
4700;SDS011;8724;51.272;6.554;2023-05-07T12:22:37;1.30;;;1.20;;
4700;SDS011;8724;51.272;6.554;2023-05-07T12:25:06;1.20;;;1.10;;
4700;SDS011;8724;51.272;6.554;2023-05-07T12:27:36;1.37;;;1.30;;
4700;SDS011;8724;51.272;6.554;2023-05-07T12:30:09;1.30;;;1.20;;
4700;SDS011;8724;51.272;6.554;2023-05-07T12:32:39;1.67;;;1.20;;
4700;SDS011;8724;51.272;6.554;2023-05-07T12:35:08;1.77;;;1.07;;
4700;SDS011;8724;51.272;6.554;2023-05-07T12:37:36;1.30;;;1.20;;
4700;SDS011;8724;51.272;6.554;2023-05-07T12:40:05;1.37;;;1.10;;
4700;SDS011;8724;51.272;6.554;2023-05-07T12:42:35;1.17;;;1.07;;
4700;SDS011;8724;51.272;6.554;2023-05-07T12:45:08;3.37;;;1.33;;
4700;SDS011;8724;51.272;6.554;2023-05-07T12:47:39;1.07;;;1.07;;
4700;SDS011;8724;51.272;6.554;2023-05-07T12:50:12;1.03;;;1.03;;
4700;SDS011;8724;51.272;6.554;2023-05-07T12:52:42;1.20;;;1.10;;
4700;SDS011;8724;51.272;6.554;2023-05-07T12:55:12;1.23;;;1.13;;
4700;SDS011;8724;51.272;6.554;2023-05-07T12:57:42;1.40;;;1.30;;
4700;SDS011;8724;51.272;6.554;2023-05-07T13:00:13;1.73;;;1.53;;
4700;SDS011;8724;51.272;6.554;2023-05-07T13:02:44;1.80;;;1.30;;
4700;SDS011;8724;51.272;6.554;2023-05-07T13:05:13;1.27;;;1.17;;
4700;SDS011;8724;51.272;6.554;2023-05-07T13:07:52;1.27;;;1.17;;
4700;SDS011;8724;51.272;6.554;2023-05-07T13:10:21;1.53;;;1.43;;
4700;SDS011;8724;51.272;6.554;2023-05-07T13:12:50;1.63;;;1.53;;
4700;SDS011;8724;51.272;6.554;2023-05-07T13:15:19;1.77;;;1.20;;
4700;SDS011;8724;51.272;6.554;2023-05-07T13:17:49;1.40;;;1.30;;
4700;SDS011;8724;51.272;6.554;2023-05-07T13:20:18;2.03;;;1.70;;
4700;SDS011;8724;51.272;6.554;2023-05-07T13:22:46;3.37;;;2.00;;
4700;SDS011;8724;51.272;6.554;2023-05-07T13:25:17;2.70;;;1.63;;
4700;SDS011;8724;51.272;6.554;2023-05-07T13:27:46;1.67;;;1.57;;
4700;SDS011;8724;51.272;6.554;2023-05-07T13:30:28;1.40;;;1.30;;
4700;SDS011;8724;51.272;6.554;2023-05-07T13:32:58;2.63;;;1.60;;
4700;SDS011;8724;51.272;6.554;2023-05-07T13:35:26;3.33;;;1.40;;
4700;SDS011;8724;51.272;6.554;2023-05-07T13:37:54;1.63;;;1.37;;
4700;SDS011;8724;51.272;6.554;2023-05-07T13:40:23;1.40;;;1.30;;
4700;SDS011;8724;51.272;6.554;2023-05-07T13:42:52;2.40;;;1.40;;
4700;SDS011;8724;51.272;6.554;2023-05-07T13:45:21;1.60;;;1.50;;
4700;SDS011;8724;51.272;6.554;2023-05-07T13:47:52;1.40;;;1.30;;
4700;SDS011;8724;51.272;6.554;2023-05-07T13:50:22;2.13;;;1.70;;
4700;SDS011;8724;51.272;6.554;2023-05-07T13:52:51;1.73;;;1.60;;
4700;SDS011;8724;51.272;6.554;2023-05-07T13:55:19;1.83;;;1.73;;
4700;SDS011;8724;51.272;6.554;2023-05-07T13:57:54;1.60;;;1.07;;
4700;SDS011;8724;51.272;6.554;2023-05-07T14:00:23;2.10;;;1.90;;
4700;SDS011;8724;51.272;6.554;2023-05-07T14:02:52;1.63;;;1.53;;
4700;SDS011;8724;51.272;6.554;2023-05-07T14:05:23;2.00;;;1.90;;
4700;SDS011;8724;51.272;6.554;2023-05-07T14:07:51;1.67;;;1.57;;
4700;SDS011;8724;51.272;6.554;2023-05-07T14:10:20;2.13;;;1.70;;
4700;SDS011;8724;51.272;6.554;2023-05-07T14:12:48;2.90;;;1.97;;
4700;SDS011;8724;51.272;6.554;2023-05-07T14:15:17;2.17;;;2.07;;
4700;SDS011;8724;51.272;6.554;2023-05-07T14:17:45;2.00;;;1.90;;
4700;SDS011;8724;51.272;6.554;2023-05-07T14:20:14;2.27;;;1.63;;
4700;SDS011;8724;51.272;6.554;2023-05-07T14:22:44;1.70;;;1.40;;
4700;SDS011;8724;51.272;6.554;2023-05-07T14:25:12;1.67;;;1.30;;
4700;SDS011;8724;51.272;6.554;2023-05-07T14:27:47;1.60;;;1.50;;
4700;SDS011;8724;51.272;6.554;2023-05-07T14:30:16;1.23;;;1.13;;
4700;SDS011;8724;51.272;6.554;2023-05-07T14:32:45;1.90;;;1.63;;
4700;SDS011;8724;51.272;6.554;2023-05-07T14:35:14;1.70;;;1.60;;
4700;SDS011;8724;51.272;6.554;2023-05-07T14:37:44;2.20;;;2.03;;
4700;SDS011;8724;51.272;6.554;2023-05-07T14:40:12;2.17;;;2.07;;
4700;SDS011;8724;51.272;6.554;2023-05-07T14:42:41;2.20;;;2.00;;
4700;SDS011;8724;51.272;6.554;2023-05-07T14:45:10;2.20;;;2.00;;
4700;SDS011;8724;51.272;6.554;2023-05-07T14:47:39;1.63;;;1.53;;
4700;SDS011;8724;51.272;6.554;2023-05-07T14:50:08;2.07;;;1.97;;
4700;SDS011;8724;51.272;6.554;2023-05-07T14:52:37;8.00;;;2.20;;
4700;SDS011;8724;51.272;6.554;2023-05-07T14:55:07;2.07;;;1.90;;
4700;SDS011;8724;51.272;6.554;2023-05-07T14:57:36;2.80;;;2.30;;
4700;SDS011;8724;51.272;6.554;2023-05-07T15:00:06;2.20;;;2.10;;
4700;SDS011;8724;51.272;6.554;2023-05-07T15:02:36;2.57;;;2.37;;
4700;SDS011;8724;51.272;6.554;2023-05-07T15:05:05;2.50;;;2.30;;
4700;SDS011;8724;51.272;6.554;2023-05-07T15:07:34;2.70;;;2.50;;
4700;SDS011;8724;51.272;6.554;2023-05-07T15:10:02;3.50;;;2.20;;
4700;SDS011;8724;51.272;6.554;2023-05-07T15:12:32;3.83;;;2.93;;
4700;SDS011;8724;51.272;6.554;2023-05-07T15:15:01;3.70;;;3.10;;
4700;SDS011;8724;51.272;6.554;2023-05-07T15:17:30;3.20;;;2.90;;
4700;SDS011;8724;51.272;6.554;2023-05-07T15:19:58;6.47;;;5.67;;
4700;SDS011;8724;51.272;6.554;2023-05-07T15:22:27;7.13;;;6.43;;
4700;SDS011;8724;51.272;6.554;2023-05-07T15:24:56;6.90;;;4.90;;
4700;SDS011;8724;51.272;6.554;2023-05-07T15:27:25;5.97;;;5.10;;
4700;SDS011;8724;51.272;6.554;2023-05-07T15:29:55;7.10;;;6.50;;
4700;SDS011;8724;51.272;6.554;2023-05-07T15:32:23;6.57;;;6.00;;
4700;SDS011;8724;51.272;6.554;2023-05-07T15:34:52;7.33;;;5.40;;
4700;SDS011;8724;51.272;6.554;2023-05-07T15:37:20;5.00;;;4.60;;
4700;SDS011;8724;51.272;6.554;2023-05-07T15:39:49;4.43;;;4.03;;
4700;SDS011;8724;51.272;6.554;2023-05-07T15:42:17;4.70;;;4.30;;
4700;SDS011;8724;51.272;6.554;2023-05-07T15:44:46;4.47;;;4.03;;